Time;durP1;ratioP1;P1;durP2;ratioP2;P2;SDS_P1;SDS_P2;PMS_P1;PMS_P2;Temp;Humidity;BMP_temperature;BMP_pressure;BME280_temperature;BME280_humidity;BME280_pressure;Samples;Min_cycle;Max_cycle;Signal;HPM_P1;HPM_P2
2021/12/27 00:00:19;;;;;;;5.77;5.37;;;8.30;99.90;;;;;;5072148;28;20490;-69
2021/12/27 00:02:48;;;;;;;6.23;5.73;;;8.30;99.90;;;;;;5071734;28;20425;-79
2021/12/27 00:05:15;;;;;;;6.20;5.70;;;8.30;99.90;;;;;;5071960;28;20414;-69
2021/12/27 00:07:41;;;;;;;6.23;5.73;;;8.40;99.90;;;;;;5061251;28;20420;-69
2021/12/27 00:10:07;;;;;;;5.83;5.43;;;8.40;99.90;;;;;;5051468;28;20424;-69
2021/12/27 00:12:33;;;;;;;216.67;113.17;;;8.40;99.90;;;;;;5050851;28;20800;-70
2021/12/27 00:14:59;;;;;;;234.47;143.07;;;8.40;99.90;;;;;;5050807;28;20470;-69
2021/12/27 00:17:24;;;;;;;25.50;17.60;;;8.40;99.90;;;;;;5051588;28;20182;-69
2021/12/27 00:19:50;;;;;;;6.70;6.20;;;8.40;99.90;;;;;;5050190;28;20214;-68
2021/12/27 00:22:16;;;;;;;6.57;6.07;;;8.40;99.90;;;;;;5052090;28;20180;-68
2021/12/27 00:24:46;;;;;;;6.43;5.93;;;8.50;99.90;;;;;;5053092;28;20253;-69
2021/12/27 00:27:14;;;;;;;6.13;5.73;;;8.50;99.90;;;;;;5071327;28;20177;-69
2021/12/27 00:29:40;;;;;;;6.90;6.27;;;8.50;99.90;;;;;;5072274;28;20812;-70
2021/12/27 00:32:05;;;;;;;5.90;5.53;;;8.50;99.90;;;;;;5069736;28;20464;-70
2021/12/27 00:34:31;;;;;;;6.10;5.60;;;8.50;99.90;;;;;;5070834;28;20555;-71
2021/12/27 00:36:57;;;;;;;6.03;5.53;;;8.50;99.90;;;;;;5070642;28;20192;-70
2021/12/27 00:39:23;;;;;;;6.43;5.93;;;8.50;99.90;;;;;;5071190;28;20281;-69
2021/12/27 00:41:48;;;;;;;6.13;5.63;;;8.60;99.90;;;;;;5071173;28;20581;-81
2021/12/27 00:44:14;;;;;;;6.50;6.00;;;8.70;99.90;;;;;;5070669;28;20185;-69
2021/12/27 00:46:40;;;;;;;6.07;5.60;;;8.60;99.90;;;;;;5070847;28;20216;-71
2021/12/27 00:49:05;;;;;;;5.40;5.00;;;8.60;99.90;;;;;;5069838;28;20394;-69
2021/12/27 00:51:31;;;;;;;5.27;4.87;;;8.60;99.90;;;;;;5071869;28;20246;-68
2021/12/27 00:53:57;;;;;;;5.33;5.00;;;8.60;99.90;;;;;;5069764;28;20265;-68
2021/12/27 00:56:22;;;;;;;4.77;4.37;;;8.50;99.90;;;;;;5070240;28;20529;-68
2021/12/27 00:58:48;;;;;;;5.20;4.80;;;8.00;99.90;;;;;;5069723;28;20409;-82
2021/12/27 01:01:14;;;;;;;5.13;4.73;;;8.10;99.90;;;;;;5069399;28;20192;-69
2021/12/27 01:03:39;;;;;;;5.07;4.67;;;8.10;99.90;;;;;;5071219;28;20617;-69
2021/12/27 01:06:05;;;;;;;5.07;4.67;;;8.20;99.90;;;;;;5070357;28;20200;-70
2021/12/27 01:08:32;;;;;;;7.27;5.13;;;8.20;99.90;;;;;;5071466;28;20583;-69
2021/12/27 01:11:22;;;;;;;5.20;4.80;;;8.30;99.90;;;;;;5070584;28;20170;-68
2021/12/27 01:14:01;;;;;;;5.40;5.10;;;8.30;99.90;;;;;;5069774;28;20853;-81
2021/12/27 01:16:27;;;;;;;5.63;5.13;;;8.10;99.90;;;;;;5070778;28;20450;-68
2021/12/27 01:18:53;;;;;;;5.20;4.80;;;8.10;99.90;;;;;;5070644;28;20781;-69
2021/12/27 01:21:21;;;;;;;5.80;5.40;;;8.20;99.90;;;;;;5069534;28;20423;-69
2021/12/27 01:23:49;;;;;;;5.70;5.20;;;8.20;99.90;;;;;;5066894;28;20407;-79
2021/12/27 01:26:15;;;;;;;6.33;5.83;;;8.00;99.90;;;;;;5070407;28;20421;-69
2021/12/27 01:28:41;;;;;;;6.43;5.83;;;7.90;99.90;;;;;;5071030;28;20410;-68
2021/12/27 01:31:07;;;;;;;5.57;5.17;;;7.90;99.90;;;;;;5066089;28;21128;-71
2021/12/27 01:33:33;;;;;;;6.40;5.90;;;7.90;99.90;;;;;;5070849;28;20410;-72
2021/12/27 01:36:00;;;;;;;6.43;5.93;;;8.10;99.90;;;;;;5052143;28;20407;-69
2021/12/27 01:38:27;;;;;;;6.20;5.70;;;8.10;99.90;;;;;;5070662;28;20484;-69
2021/12/27 01:40:55;;;;;;;6.40;5.90;;;7.90;99.90;;;;;;5070393;28;20446;-70
2021/12/27 01:43:27;;;;;;;7.10;6.50;;;7.90;99.90;;;;;;5068448;28;20460;-69
2021/12/27 01:46:03;;;;;;;6.93;6.33;;;7.80;99.90;;;;;;5067786;28;20519;-68
2021/12/27 01:48:33;;;;;;;6.50;6.00;;;7.80;99.90;;;;;;5068032;28;20410;-65
2021/12/27 01:51:00;;;;;;;5.60;5.20;;;7.80;99.90;;;;;;5069115;28;20449;-66
2021/12/27 01:53:29;;;;;;;6.60;6.00;;;7.80;99.90;;;;;;5071724;28;20454;-66
2021/12/27 01:55:56;;;;;;;6.67;6.07;;;7.90;99.90;;;;;;5071148;28;20423;-66
2021/12/27 01:58:23;;;;;;;6.13;5.63;;;7.80;99.90;;;;;;5074032;28;20463;-68
2021/12/27 02:01:00;;;;;;;6.17;5.57;;;7.90;99.90;;;;;;5075339;28;20406;-73
2021/12/27 02:03:28;;;;;;;6.73;6.17;;;8.00;99.90;;;;;;5076232;28;20493;-67
2021/12/27 02:05:54;;;;;;;5.93;5.43;;;8.00;99.90;;;;;;5073825;28;20411;-67
2021/12/27 02:08:21;;;;;;;6.43;5.83;;;8.00;99.90;;;;;;5074710;28;20993;-67
2021/12/27 02:10:49;;;;;;;6.10;5.50;;;7.70;99.90;;;;;;5073655;28;20556;-74
2021/12/27 02:13:15;;;;;;;5.77;5.27;;;7.40;99.90;;;;;;5074197;28;20412;-67
2021/12/27 02:15:41;;;;;;;5.93;5.43;;;7.40;99.90;;;;;;5074470;28;20768;-67
2021/12/27 02:18:11;;;;;;;6.07;5.57;;;7.50;99.90;;;;;;5074666;28;20432;-68
2021/12/27 02:20:39;;;;;;;5.70;5.20;;;7.70;99.90;;;;;;5072629;28;20419;-67
2021/12/27 02:23:15;;;;;;;5.80;5.33;;;7.80;99.90;;;;;;5073342;28;20975;-68
2021/12/27 02:25:42;;;;;;;6.23;5.70;;;7.90;99.90;;;;;;5067036;28;20402;-67
2021/12/27 02:28:09;;;;;;;5.67;5.27;;;7.80;99.90;;;;;;5072098;28;20418;-67
2021/12/27 02:30:37;;;;;;;5.77;5.33;;;8.00;99.90;;;;;;5074367;28;20418;-67
2021/12/27 02:33:05;;;;;;;5.30;4.90;;;8.10;99.90;;;;;;5073554;28;20411;-67
2021/12/27 02:35:46;;;;;;;5.60;5.10;;;8.00;99.90;;;;;;5074591;28;20437;-67
2021/12/27 02:38:18;;;;;;;6.03;5.47;;;8.10;99.90;;;;;;5074044;28;20469;-67
2021/12/27 02:40:44;;;;;;;5.90;5.40;;;8.10;99.90;;;;;;5072825;28;20496;-71
2021/12/27 02:43:16;;;;;;;5.57;5.10;;;8.20;99.90;;;;;;5070867;28;20626;-67
2021/12/27 02:45:44;;;;;;;5.80;5.40;;;8.20;99.90;;;;;;5054505;28;20451;-67
2021/12/27 02:48:16;;;;;;;5.63;5.13;;;8.30;99.90;;;;;;5072872;28;20981;-68
2021/12/27 02:50:44;;;;;;;5.90;5.50;;;8.30;99.90;;;;;;5072621;28;20395;-67
2021/12/27 02:53:11;;;;;;;5.83;5.37;;;8.30;99.90;;;;;;5071386;28;20660;-67
2021/12/27 02:55:38;;;;;;;5.97;5.57;;;8.30;99.90;;;;;;5071269;28;20423;-67
2021/12/27 02:58:03;;;;;;;6.07;5.57;;;8.30;99.90;;;;;;5060909;28;20427;-67
2021/12/27 03:00:33;;;;;;;5.23;4.83;;;8.30;99.90;;;;;;5085447;28;20510;-68
2021/12/27 03:02:59;;;;;;;6.63;6.10;;;8.20;99.90;;;;;;5094407;28;20414;-66
2021/12/27 03:05:28;;;;;;;5.70;5.30;;;8.20;99.90;;;;;;5094845;28;20864;-67
2021/12/27 03:07:54;;;;;;;5.13;4.83;;;8.30;99.90;;;;;;5094314;28;20417;-69
2021/12/27 03:10:23;;;;;;;5.80;5.40;;;8.40;99.90;;;;;;5094428;28;20410;-67
2021/12/27 03:12:52;;;;;;;5.23;4.83;;;8.40;99.90;;;;;;5063953;28;20428;-77
2021/12/27 03:15:19;;;;;;;5.10;4.70;;;8.40;99.90;;;;;;5055874;28;20514;-67
2021/12/27 03:17:46;;;;;;;5.00;4.70;;;8.40;99.90;;;;;;5070173;28;20428;-67
2021/12/27 03:20:13;;;;;;;5.80;5.40;;;8.40;99.90;;;;;;5073126;28;20463;-67
2021/12/27 03:22:41;;;;;;;5.23;4.90;;;8.40;99.90;;;;;;5074119;28;20895;-67
2021/12/27 03:25:09;;;;;;;5.33;4.93;;;8.40;99.90;;;;;;5073725;28;20412;-67
2021/12/27 03:27:35;;;;;;;5.43;5.03;;;8.30;99.90;;;;;;5074591;28;20751;-67
2021/12/27 03:30:02;;;;;;;5.43;5.03;;;8.30;99.90;;;;;;5072467;28;20477;-67
2021/12/27 03:32:30;;;;;;;5.47;5.07;;;8.20;99.90;;;;;;5074306;28;20760;-68
2021/12/27 03:35:03;;;;;;;5.80;5.20;;;8.20;99.90;;;;;;5071463;28;20393;-69
2021/12/27 03:37:30;;;;;;;5.77;5.33;;;8.30;99.90;;;;;;5074885;28;20396;-68
2021/12/27 03:39:56;;;;;;;5.60;5.20;;;8.40;99.90;;;;;;5071951;28;20524;-69
2021/12/27 03:42:22;;;;;;;6.07;5.57;;;8.40;99.90;;;;;;5056127;28;20895;-66
2021/12/27 03:44:48;;;;;;;5.30;4.90;;;8.40;99.90;;;;;;5073868;28;20501;-68
2021/12/27 03:47:14;;;;;;;5.40;5.00;;;8.40;99.90;;;;;;5057054;28;21011;-68
2021/12/27 03:49:40;;;;;;;6.53;6.03;;;8.40;99.90;;;;;;5054081;28;20472;-69
2021/12/27 03:52:06;;;;;;;5.70;5.30;;;8.40;99.90;;;;;;5067050;28;20431;-68
2021/12/27 03:54:32;;;;;;;5.97;5.57;;;8.50;99.90;;;;;;5072434;28;20429;-68
2021/12/27 03:56:58;;;;;;;5.70;5.30;;;8.50;99.90;;;;;;5073263;28;20411;-69
2021/12/27 04:02:14;;;;;;;5.97;5.57;;;8.50;99.90;;;;;;5029544;28;20273;-68
2021/12/27 04:04:40;;;;;;;5.77;5.33;;;8.40;99.90;;;;;;5072375;28;20899;-68
2021/12/27 04:07:08;;;;;;;5.67;5.17;;;8.40;99.90;;;;;;5072911;28;20400;-69
2021/12/27 04:09:34;;;;;;;7.13;6.53;;;8.50;99.90;;;;;;5073651;28;20422;-68
2021/12/27 04:12:00;;;;;;;6.40;5.83;;;8.50;99.90;;;;;;5072481;28;20494;-69
2021/12/27 04:14:26;;;;;;;5.93;5.53;;;8.50;99.90;;;;;;5073672;28;20514;-68
2021/12/27 04:16:55;;;;;;;6.67;6.20;;;8.50;99.90;;;;;;5073105;28;20264;-81
2021/12/27 04:19:20;;;;;;;6.37;5.87;;;8.50;99.90;;;;;;5071919;28;20197;-68
2021/12/27 04:21:47;;;;;;;6.60;6.10;;;8.50;99.90;;;;;;5072415;28;20370;-69
2021/12/27 04:24:13;;;;;;;6.00;5.50;;;8.50;99.90;;;;;;5072626;28;20514;-68
2021/12/27 04:26:39;;;;;;;5.87;5.47;;;8.50;99.90;;;;;;5073011;28;20503;-68
2021/12/27 04:29:05;;;;;;;6.60;6.10;;;8.50;99.90;;;;;;5057547;28;20461;-68
2021/12/27 04:31:31;;;;;;;5.97;5.50;;;8.60;99.90;;;;;;5057867;28;20431;-68
2021/12/27 04:33:57;;;;;;;6.70;6.13;;;8.50;99.90;;;;;;5071218;28;20556;-78
2021/12/27 04:36:23;;;;;;;6.40;5.90;;;8.60;99.90;;;;;;5073168;28;20181;-68
2021/12/27 04:38:49;;;;;;;6.20;5.70;;;8.60;99.90;;;;;;5072764;28;20490;-68
2021/12/27 04:41:19;;;;;;;5.87;5.40;;;8.60;99.90;;;;;;5054206;28;20938;-68
2021/12/27 04:43:45;;;;;;;6.83;6.23;;;8.60;99.90;;;;;;5052772;28;20781;-68
2021/12/27 04:46:11;;;;;;;5.50;5.20;;;8.70;99.90;;;;;;5056018;28;20550;-68
2021/12/27 04:48:36;;;;;;;6.60;6.10;;;8.60;99.90;;;;;;5063051;28;20770;-68
2021/12/27 04:51:03;;;;;;;6.77;6.27;;;8.60;99.90;;;;;;5070730;28;20465;-68
2021/12/27 04:53:28;;;;;;;6.40;5.90;;;8.60;99.90;;;;;;5071416;28;20189;-68
2021/12/27 04:55:54;;;;;;;7.07;6.57;;;8.60;99.90;;;;;;5072538;28;20411;-82
2021/12/27 04:58:22;;;;;;;6.57;6.07;;;8.60;99.90;;;;;;5072007;28;20259;-68
2021/12/27 05:00:49;;;;;;;7.00;6.50;;;8.60;99.90;;;;;;5077437;28;20196;-68
2021/12/27 05:03:14;;;;;;;6.47;5.97;;;8.60;99.90;;;;;;5076447;28;20490;-68
2021/12/27 05:05:44;;;;;;;6.37;5.97;;;8.60;99.90;;;;;;5069051;28;20415;-68
2021/12/27 05:08:10;;;;;;;6.23;5.80;;;8.60;99.90;;;;;;5072018;28;20410;-68
2021/12/27 05:10:37;;;;;;;6.60;6.10;;;8.60;99.90;;;;;;5063792;28;20550;-68
2021/12/27 05:13:03;;;;;;;5.80;5.43;;;8.50;99.90;;;;;;5091916;28;20406;-69
2021/12/27 05:15:28;;;;;;;5.70;5.30;;;8.60;99.90;;;;;;5083262;28;20456;-68
2021/12/27 05:17:54;;;;;;;6.00;5.60;;;8.60;99.90;;;;;;5053486;28;20847;-76
2021/12/27 05:20:20;;;;;;;5.87;5.57;;;8.50;99.90;;;;;;5062736;28;20212;-68
2021/12/27 05:22:46;;;;;;;5.80;5.40;;;8.50;99.90;;;;;;5065719;28;20801;-68
2021/12/27 05:25:15;;;;;;;6.73;6.20;;;8.50;99.90;;;;;;5050377;28;20592;-68
2021/12/27 05:27:42;;;;;;;6.47;6.00;;;8.50;99.90;;;;;;5066545;28;20208;-68
2021/12/27 05:30:09;;;;;;;5.93;5.57;;;8.50;99.90;;;;;;5061387;28;20428;-69
2021/12/27 05:32:35;;;;;;;5.60;5.23;;;8.50;99.90;;;;;;5051742;28;20416;-69
2021/12/27 05:35:02;;;;;;;5.83;5.43;;;8.50;99.90;;;;;;5063825;28;20428;-69
2021/12/27 05:37:28;;;;;;;7.60;7.00;;;8.50;99.90;;;;;;5063675;28;20428;-69
2021/12/27 05:39:54;;;;;;;5.90;5.40;;;8.50;99.90;;;;;;5077763;28;20462;-68
2021/12/27 05:42:20;;;;;;;5.47;5.07;;;8.60;99.90;;;;;;5051406;28;20173;-68
2021/12/27 05:44:46;;;;;;;6.80;6.20;;;8.60;99.90;;;;;;5050610;28;20508;-69
2021/12/27 05:47:12;;;;;;;6.20;5.70;;;8.60;99.90;;;;;;5065840;28;20200;-68
2021/12/27 05:49:37;;;;;;;5.30;5.00;;;8.60;99.90;;;;;;5063653;28;20180;-68
2021/12/27 05:52:04;;;;;;;5.60;5.20;;;8.60;99.90;;;;;;5071180;28;20223;-69
2021/12/27 05:54:29;;;;;;;5.50;5.10;;;8.60;99.90;;;;;;5070553;28;20177;-68
2021/12/27 05:56:55;;;;;;;5.47;5.07;;;8.60;99.90;;;;;;5072022;28;20434;-68
2021/12/27 05:59:21;;;;;;;7.60;6.90;;;8.60;99.90;;;;;;5071131;28;20299;-68
2021/12/27 06:01:47;;;;;;;6.20;5.70;;;8.50;99.90;;;;;;5071963;28;20303;-68
2021/12/27 06:04:12;;;;;;;6.23;5.83;;;8.50;99.90;;;;;;5070226;28;20177;-69
2021/12/27 06:06:38;;;;;;;9.47;7.70;;;8.50;99.90;;;;;;5071963;28;20403;-68
2021/12/27 06:09:05;;;;;;;6.50;5.90;;;8.50;99.90;;;;;;5071227;28;20192;-68
2021/12/27 06:11:31;;;;;;;5.80;5.30;;;8.50;99.90;;;;;;5072151;28;20461;-68
2021/12/27 06:13:57;;;;;;;5.43;5.03;;;8.50;99.90;;;;;;5071601;28;20465;-68
2021/12/27 06:16:23;;;;;;;6.13;5.73;;;8.50;99.90;;;;;;5071068;28;20418;-68
2021/12/27 06:18:49;;;;;;;6.07;5.67;;;8.50;99.90;;;;;;5055554;28;20464;-68
2021/12/27 06:21:15;;;;;;;6.00;5.50;;;8.50;99.90;;;;;;5049731;28;20182;-68
2021/12/27 06:23:42;;;;;;;6.20;5.70;;;8.50;99.90;;;;;;5059852;28;20561;-68
2021/12/27 06:26:08;;;;;;;6.90;6.30;;;8.40;99.90;;;;;;5090945;28;20418;-69
2021/12/27 06:28:34;;;;;;;7.40;6.70;;;8.40;99.90;;;;;;5087824;28;20506;-69
2021/12/27 06:31:01;;;;;;;6.30;5.80;;;8.50;99.90;;;;;;5071206;28;20591;-83
2021/12/27 06:33:28;;;;;;;6.03;5.53;;;8.50;99.90;;;;;;5070396;28;20458;-73
2021/12/27 06:35:54;;;;;;;6.57;5.97;;;8.60;99.90;;;;;;5051360;28;20420;-69
2021/12/27 06:38:21;;;;;;;7.40;6.80;;;8.70;99.90;;;;;;5054373;28;20590;-66
2021/12/27 06:40:48;;;;;;;28.63;19.00;;;8.60;99.90;;;;;;5064786;28;20472;-69
2021/12/27 06:43:13;;;;;;;10.30;9.00;;;8.70;99.90;;;;;;5089640;28;20437;-68
2021/12/27 06:45:39;;;;;;;9.17;8.27;;;8.90;99.90;;;;;;5075229;28;20462;-66
2021/12/27 06:48:05;;;;;;;6.50;6.00;;;8.90;99.90;;;;;;5067820;28;20551;-68
2021/12/27 06:50:30;;;;;;;6.93;6.30;;;9.00;99.90;;;;;;5055214;28;20185;-67
2021/12/27 06:52:56;;;;;;;6.40;5.90;;;9.10;99.90;;;;;;5066989;28;20625;-68
2021/12/27 06:55:22;;;;;;;6.30;5.80;;;9.10;99.90;;;;;;5072400;28;20180;-68
2021/12/27 06:57:49;;;;;;;6.70;6.20;;;9.10;99.90;;;;;;5074859;28;20494;-66
2021/12/27 07:00:15;;;;;;;7.17;6.57;;;9.10;99.90;;;;;;5074111;28;20226;-68
2021/12/27 07:02:42;;;;;;;6.93;6.43;;;9.10;99.90;;;;;;5072856;28;20419;-67
2021/12/27 07:05:09;;;;;;;7.23;6.73;;;9.10;99.90;;;;;;5065781;28;20452;-69
2021/12/27 07:07:35;;;;;;;7.47;6.67;;;9.10;99.90;;;;;;5067589;28;20523;-69
2021/12/27 07:10:01;;;;;;;6.50;6.00;;;9.10;99.90;;;;;;5067052;28;20547;-75
2021/12/27 07:12:26;;;;;;;7.17;6.20;;;9.10;99.90;;;;;;5056944;28;20427;-69
2021/12/27 07:14:53;;;;;;;6.90;6.30;;;8.90;99.90;;;;;;5063985;28;20189;-69
2021/12/27 07:17:19;;;;;;;7.30;6.50;;;8.90;99.90;;;;;;5059470;28;20518;-69
2021/12/27 07:19:45;;;;;;;6.87;6.27;;;8.90;99.90;;;;;;5052225;28;20969;-69
2021/12/27 07:22:11;;;;;;;6.73;6.20;;;8.80;99.90;;;;;;5071607;28;20415;-69
2021/12/27 07:24:37;;;;;;;7.00;6.47;;;8.80;99.90;;;;;;5074233;28;20181;-68
2021/12/27 07:27:03;;;;;;;6.37;5.87;;;8.80;99.90;;;;;;5071987;28;20198;-74
2021/12/27 07:29:28;;;;;;;6.47;5.97;;;8.70;99.90;;;;;;5063957;28;20423;-68
2021/12/27 07:31:54;;;;;;;7.60;6.63;;;8.70;99.90;;;;;;5073107;28;20988;-68
2021/12/27 07:34:24;;;;;;;7.00;6.40;;;8.70;99.90;;;;;;5067536;28;20276;-69
2021/12/27 07:36:54;;;;;;;6.50;5.90;;;8.60;99.90;;;;;;5057216;28;20184;-68
2021/12/27 07:39:21;;;;;;;7.10;6.50;;;8.70;99.90;;;;;;5053159;28;20444;-68
2021/12/27 07:41:46;;;;;;;6.87;6.20;;;8.70;99.90;;;;;;5054125;28;20479;-68
2021/12/27 07:44:13;;;;;;;7.07;6.47;;;8.50;99.90;;;;;;5061647;28;20428;-68
2021/12/27 07:46:40;;;;;;;6.90;6.40;;;8.60;99.90;;;;;;5064891;28;20455;-70
2021/12/27 07:49:07;;;;;;;7.20;6.60;;;8.70;99.90;;;;;;5069392;28;20419;-76
2021/12/27 07:51:33;;;;;;;7.63;6.90;;;8.70;99.90;;;;;;5064670;28;20427;-69
2021/12/27 07:53:59;;;;;;;6.90;6.23;;;8.80;99.90;;;;;;5068005;28;20446;-69
2021/12/27 07:56:25;;;;;;;7.50;6.90;;;8.90;99.90;;;;;;5073055;28;20399;-69
2021/12/27 07:58:50;;;;;;;6.80;6.30;;;8.90;99.90;;;;;;5071789;28;20451;-67
2021/12/27 08:01:16;;;;;;;6.73;6.20;;;8.80;99.90;;;;;;5063331;28;20230;-67
2021/12/27 08:03:42;;;;;;;7.17;6.47;;;8.70;99.90;;;;;;5054673;28;20169;-70
2021/12/27 08:06:08;;;;;;;7.10;6.50;;;8.50;99.90;;;;;;5051781;28;20189;-81
2021/12/27 08:08:34;;;;;;;6.50;5.90;;;8.50;99.90;;;;;;5054174;28;20186;-69
2021/12/27 08:11:00;;;;;;;7.23;5.93;;;8.50;99.90;;;;;;5052498;28;20419;-69
2021/12/27 08:13:25;;;;;;;6.47;5.80;;;8.60;99.90;;;;;;5062639;28;20424;-67
2021/12/27 08:15:51;;;;;;;5.67;5.27;;;8.70;99.90;;;;;;5057134;28;20428;-67
2021/12/27 08:18:17;;;;;;;6.30;5.80;;;8.70;99.90;;;;;;5064649;28;20177;-67
2021/12/27 08:20:43;;;;;;;6.47;5.87;;;8.60;99.90;;;;;;5063697;28;20201;-68
2021/12/27 08:23:09;;;;;;;6.30;5.70;;;8.60;99.90;;;;;;5059728;28;20184;-74
2021/12/27 08:25:34;;;;;;;6.13;5.70;;;8.70;99.90;;;;;;5063345;28;20265;-68
2021/12/27 08:28:00;;;;;;;6.27;5.77;;;8.80;99.90;;;;;;5064291;28;20207;-68
2021/12/27 08:30:26;;;;;;;5.73;5.33;;;8.90;99.90;;;;;;5069640;28;20196;-68
2021/12/27 08:32:54;;;;;;;6.37;5.87;;;9.00;99.90;;;;;;5071844;28;20415;-66
2021/12/27 08:35:20;;;;;;;6.57;6.17;;;9.00;99.90;;;;;;5070904;28;20178;-68
2021/12/27 08:37:46;;;;;;;5.80;5.40;;;9.00;99.90;;;;;;5071989;28;20407;-67
2021/12/27 08:40:13;;;;;;;7.23;6.53;;;9.00;99.90;;;;;;5069887;28;20481;-67
2021/12/27 08:42:39;;;;;;;6.40;5.90;;;9.00;99.90;;;;;;5069619;28;20848;-67
2021/12/27 08:45:06;;;;;;;6.60;6.10;;;9.00;99.90;;;;;;5064905;28;20455;-74
2021/12/27 08:47:32;;;;;;;7.03;6.53;;;9.10;99.90;;;;;;5069791;28;20427;-71
2021/12/27 08:49:59;;;;;;;6.67;6.17;;;9.10;99.90;;;;;;5071356;28;20433;-72
2021/12/27 08:52:26;;;;;;;7.07;6.47;;;8.90;99.90;;;;;;5059686;28;20428;-74
2021/12/27 08:54:52;;;;;;;6.30;5.87;;;8.90;99.90;;;;;;5071643;28;20416;-68
2021/12/27 08:57:18;;;;;;;6.53;6.03;;;9.00;99.90;;;;;;5065779;28;20422;-67
2021/12/27 08:59:43;;;;;;;6.00;5.50;;;9.30;99.90;;;;;;5072641;28;20201;-67
2021/12/27 09:02:12;;;;;;;6.87;6.27;;;9.60;99.90;;;;;;5071301;28;20187;-75
2021/12/27 09:04:38;;;;;;;5.97;5.57;;;9.80;99.90;;;;;;5068364;28;20188;-67
2021/12/27 09:07:04;;;;;;;5.90;5.40;;;9.90;99.90;;;;;;5070994;28;20411;-67
2021/12/27 09:09:31;;;;;;;6.00;5.50;;;9.70;99.90;;;;;;5069162;28;20507;-67
2021/12/27 09:11:57;;;;;;;6.40;5.90;;;9.60;99.90;;;;;;5072163;28;20428;-66
2021/12/27 09:14:22;;;;;;;6.00;5.60;;;10.00;99.90;;;;;;5064315;28;20499;-67
2021/12/27 09:16:48;;;;;;;5.47;5.07;;;10.90;99.90;;;;;;5068203;28;20481;-67
2021/12/27 09:19:14;;;;;;;5.73;5.30;;;12.40;99.90;;;;;;5070070;28;20215;-66
2021/12/27 09:21:40;;;;;;;6.10;5.70;;;13.90;97.90;;;;;;5071479;28;20181;-67
2021/12/27 09:24:07;;;;;;;5.53;5.20;;;15.10;94.30;;;;;;5062993;28;20419;-76
2021/12/27 09:26:33;;;;;;;5.13;4.73;;;15.90;92.10;;;;;;5050573;28;20516;-67
2021/12/27 09:28:59;;;;;;;6.37;5.87;;;16.80;90.60;;;;;;5052299;28;20757;-66
2021/12/27 09:31:25;;;;;;;5.93;5.53;;;17.50;87.10;;;;;;5065826;28;20419;-67
2021/12/27 09:33:51;;;;;;;6.43;6.03;;;18.10;82.50;;;;;;5076207;28;20574;-67
2021/12/27 09:36:17;;;;;;;6.47;6.07;;;18.70;80.70;;;;;;5091654;28;20402;-67
2021/12/27 09:38:43;;;;;;;5.20;4.90;;;19.40;78.70;;;;;;5056690;28;20983;-66
2021/12/27 09:41:09;;;;;;;5.37;5.07;;;20.30;74.40;;;;;;5058666;28;20184;-77
2021/12/27 09:43:37;;;;;;;5.60;5.30;;;21.30;70.60;;;;;;5060841;28;20189;-67
2021/12/27 09:46:03;;;;;;;7.10;6.70;;;21.90;65.90;;;;;;5066449;28;20459;-66
2021/12/27 09:48:29;;;;;;;5.27;4.93;;;21.80;64.20;;;;;;5057535;28;20492;-67
2021/12/27 09:50:57;;;;;;;5.40;5.07;;;21.70;64.10;;;;;;5059661;28;20427;-66
2021/12/27 09:53:23;;;;;;;177.10;117.67;;;21.60;63.70;;;;;;5061595;28;20169;-66
2021/12/27 09:55:51;;;;;;;8.60;7.80;;;21.50;63.00;;;;;;5065671;28;20423;-68
2021/12/27 09:58:17;;;;;;;5.47;5.20;;;21.20;62.50;;;;;;5061998;28;20427;-66
2021/12/27 10:00:43;;;;;;;5.70;5.40;;;20.80;63.20;;;;;;5061832;28;20488;-67
2021/12/27 10:03:09;;;;;;;5.90;5.60;;;20.20;64.10;;;;;;5069647;28;20412;-73
2021/12/27 10:05:37;;;;;;;5.80;5.40;;;19.70;66.70;;;;;;5066257;28;20419;-66
2021/12/27 10:08:03;;;;;;;5.90;5.50;;;18.90;68.90;;;;;;5068469;28;20404;-67
2021/12/27 10:10:32;;;;;;;5.83;5.53;;;19.20;71.10;;;;;;5063578;28;20427;-68
2021/12/27 10:12:57;;;;;;;6.27;5.80;;;19.40;69.80;;;;;;5064299;28;20509;-67
2021/12/27 10:15:33;;;;;;;5.30;5.00;;;19.20;68.60;;;;;;5066028;28;22113;-66
2021/12/27 10:18:07;;;;;;;4.87;4.50;;;18.20;69.90;;;;;;5065504;28;20164;-65
2021/12/27 10:20:33;;;;;;;4.63;4.30;;;17.70;73.20;;;;;;5069695;28;20446;-67
2021/12/27 10:22:59;;;;;;;4.80;4.50;;;16.80;75.00;;;;;;5072253;28;20423;-66
2021/12/27 10:25:26;;;;;;;4.67;4.37;;;16.00;79.30;;;;;;5071601;28;20656;-67
2021/12/27 10:27:54;;;;;;;5.03;4.73;;;15.70;82.10;;;;;;5067505;28;20176;-66
2021/12/27 10:30:23;;;;;;;5.10;4.80;;;15.90;81.80;;;;;;5071302;28;20416;-68
2021/12/27 10:33:01;;;;;;;4.93;4.63;;;16.10;82.80;;;;;;5066158;28;20426;-69
2021/12/27 10:35:35;;;;;;;82.57;54.53;;;16.70;81.90;;;;;;5070691;28;20462;-71
2021/12/27 10:38:22;;;;;;;82.37;57.63;;;17.50;81.10;;;;;;5072750;28;21051;-68
2021/12/27 10:40:52;;;;;;;17.77;15.87;;;18.60;76.50;;;;;;5073282;28;20525;-68
2021/12/27 10:43:31;;;;;;;9.83;8.90;;;18.70;73.10;;;;;;5072944;28;20426;-71
2021/12/27 10:46:03;;;;;;;10.60;9.50;;;17.10;77.10;;;;;;5071467;28;20500;-69
2021/12/27 10:48:40;;;;;;;6.37;5.87;;;16.80;81.30;;;;;;5071794;28;20748;-72
2021/12/27 10:51:07;;;;;;;7.37;6.77;;;16.70;82.00;;;;;;5063828;28;20415;-74
2021/12/27 10:53:47;;;;;;;4.93;4.63;;;16.50;82.30;;;;;;5070529;28;20774;-70
2021/12/27 10:56:14;;;;;;;82.63;57.60;;;16.20;82.90;;;;;;5065113;28;20863;-73
2021/12/27 10:58:52;;;;;;;8.60;7.80;;;15.40;84.70;;;;;;5066353;28;20426;-68
2021/12/27 11:01:21;;;;;;;9.50;8.60;;;15.00;87.00;;;;;;5066380;28;20427;-69
2021/12/27 11:03:52;;;;;;;7.73;7.03;;;14.60;89.60;;;;;;5064422;28;20913;-68
2021/12/27 11:06:24;;;;;;;7.43;6.73;;;14.30;90.70;;;;;;5067922;28;20412;-70
2021/12/27 11:08:52;;;;;;;5.87;5.43;;;14.00;91.70;;;;;;5065040;28;20434;-73
2021/12/27 11:11:19;;;;;;;4.13;3.93;;;13.30;93.00;;;;;;5074793;28;20410;-76
2021/12/27 11:13:47;;;;;;;4.77;4.47;;;13.30;94.40;;;;;;5064140;28;20520;-69
2021/12/27 11:16:13;;;;;;;4.80;4.60;;;13.50;95.00;;;;;;5066408;28;20442;-78
2021/12/27 11:18:39;;;;;;;4.00;3.80;;;13.60;94.90;;;;;;5068900;28;20434;-68
2021/12/27 11:21:12;;;;;;;4.20;4.00;;;13.50;94.80;;;;;;5072730;28;20418;-68
2021/12/27 11:23:38;;;;;;;3.80;3.60;;;13.20;95.60;;;;;;5073039;28;20180;-68
2021/12/27 11:26:06;;;;;;;4.20;4.00;;;13.50;96.00;;;;;;5074631;28;20421;-67
2021/12/27 11:28:38;;;;;;;4.00;3.80;;;13.90;95.80;;;;;;5073359;28;20433;-68
2021/12/27 11:31:07;;;;;;;3.60;3.40;;;14.30;94.70;;;;;;5072745;28;20506;-67
2021/12/27 11:34:02;;;;;;;3.97;3.70;;;14.60;93.70;;;;;;5073086;28;20688;-69
2021/12/27 11:36:37;;;;;;;21.90;18.23;;;14.90;92.70;;;;;;5073169;28;20408;-70
2021/12/27 11:39:20;;;;;;;69.20;43.73;;;14.60;92.90;;;;;;5073099;28;20468;-69
2021/12/27 11:41:58;;;;;;;73.50;47.23;;;14.60;93.00;;;;;;5074210;28;20426;-68
2021/12/27 11:44:49;;;;;;;4.53;4.30;;;14.50;93.50;;;;;;5072648;28;20506;-68
2021/12/27 11:47:32;;;;;;;3.47;3.37;;;14.40;93.40;;;;;;5060223;28;20431;-73
2021/12/27 11:50:07;;;;;;;3.80;3.60;;;13.70;94.50;;;;;;5055757;28;20459;-68
2021/12/27 11:52:34;;;;;;;3.90;3.70;;;13.70;95.00;;;;;;5065374;28;21046;-68
2021/12/27 11:55:04;;;;;;;4.00;3.80;;;13.70;95.00;;;;;;5069183;28;20423;-70
2021/12/27 11:57:45;;;;;;;3.50;3.40;;;13.60;94.70;;;;;;5063184;28;20442;-68
2021/12/27 12:00:17;;;;;;;3.90;3.80;;;13.50;95.30;;;;;;5071527;28;20458;-75
2021/12/27 12:02:45;;;;;;;5.17;4.67;;;13.50;95.60;;;;;;5071670;28;20433;-68
2021/12/27 12:05:30;;;;;;;3.87;3.67;;;13.50;95.60;;;;;;5073040;28;20933;-75
2021/12/27 12:07:56;;;;;;;3.63;3.43;;;13.50;95.50;;;;;;5073227;28;20505;-68
2021/12/27 12:10:22;;;;;;;4.10;3.90;;;13.50;96.20;;;;;;5072539;28;20506;-68
2021/12/27 12:13:17;;;;;;;3.80;3.50;;;13.60;96.30;;;;;;5073219;28;20404;-68
2021/12/27 12:15:56;;;;;;;3.67;3.47;;;13.70;95.90;;;;;;5073227;28;20762;-68
2021/12/27 12:18:22;;;;;;;3.20;3.10;;;13.60;95.90;;;;;;5072386;28;20480;-68
2021/12/27 12:20:48;;;;;;;4.90;4.60;;;13.70;95.80;;;;;;5071639;28;20455;-68
2021/12/27 12:23:13;;;;;;;5.23;4.90;;;13.60;95.80;;;;;;5070950;28;20260;-73
2021/12/27 12:25:39;;;;;;;4.47;4.20;;;13.60;96.00;;;;;;5069591;28;20180;-67
2021/12/27 12:28:08;;;;;;;4.10;3.90;;;13.50;96.00;;;;;;5071145;28;20234;-68
2021/12/27 12:30:48;;;;;;;3.60;3.50;;;13.30;96.40;;;;;;5069975;28;21313;-67
2021/12/27 12:33:24;;;;;;;3.60;3.50;;;13.10;96.50;;;;;;5068084;28;20676;-74
2021/12/27 12:36:04;;;;;;;3.87;3.63;;;12.90;97.60;;;;;;5069446;28;20426;-67
2021/12/27 12:38:42;;;;;;;3.67;3.47;;;12.80;98.10;;;;;;5070623;28;21038;-67
2021/12/27 12:41:09;;;;;;;4.17;3.97;;;12.70;98.50;;;;;;5052514;28;20450;-68
2021/12/27 12:43:45;;;;;;;3.80;3.60;;;12.60;98.60;;;;;;5069494;28;20523;-68
2021/12/27 12:46:22;;;;;;;3.63;3.43;;;12.60;99.00;;;;;;5070423;28;20555;-74
2021/12/27 12:49:00;;;;;;;4.33;4.07;;;12.40;99.20;;;;;;5060556;28;20768;-67
2021/12/27 12:51:35;;;;;;;7.80;7.10;;;12.20;99.90;;;;;;5064713;28;20430;-68
2021/12/27 12:54:02;;;;;;;73.73;48.80;;;12.00;99.90;;;;;;5056962;28;20552;-67
2021/12/27 12:56:30;;;;;;;6.83;6.33;;;11.90;99.90;;;;;;5071158;28;20439;-68
2021/12/27 12:58:56;;;;;;;3.80;3.60;;;12.10;99.90;;;;;;5070004;28;20447;-69